sensor_id;sensor_type;location;lat;lon;timestamp;pressure;altitude;pressure_sealevel;temperature;humidity
28911;BME280;16028;42.642;23.310;2023-02-23T02:30:43;93834.06;;;6.89;75.44
28911;BME280;16028;42.642;23.310;2023-02-23T02:33:28;93833.53;;;6.96;75.08
28911;BME280;16028;42.642;23.310;2023-02-23T02:36:03;93835.47;;;7.03;73.06
28911;BME280;16028;42.642;23.310;2023-02-23T02:38:41;93836.56;;;7.01;73.98
28911;BME280;16028;42.642;23.310;2023-02-23T02:41:16;93838.97;;;6.92;74.23
28911;BME280;16028;42.642;23.310;2023-02-23T02:43:46;93837.44;;;6.80;75.13
28911;BME280;16028;42.642;23.310;2023-02-23T02:46:15;93837.94;;;6.74;75.64
28911;BME280;16028;42.642;23.310;2023-02-23T02:48:45;93841.63;;;6.72;75.95
28911;BME280;16028;42.642;23.310;2023-02-23T02:51:16;93834.78;;;6.71;76.20
28911;BME280;16028;42.642;23.310;2023-02-23T02:53:49;93829.00;;;6.58;76.80
28911;BME280;16028;42.642;23.310;2023-02-23T02:56:17;93829.28;;;6.55;76.54
28911;BME280;16028;42.642;23.310;2023-02-23T02:58:45;93834.44;;;6.55;76.65
28911;BME280;16028;42.642;23.310;2023-02-23T03:01:15;93832.81;;;6.54;76.90
28911;BME280;16028;42.642;23.310;2023-02-23T03:03:59;93833.34;;;6.48;77.44
28911;BME280;16028;42.642;23.310;2023-02-23T03:06:46;93836.59;;;6.29;78.50
28911;BME280;16028;42.642;23.310;2023-02-23T03:09:36;93835.03;;;6.17;78.67
28911;BME280;16028;42.642;23.310;2023-02-23T03:12:25;93835.34;;;6.23;78.66
28911;BME280;16028;42.642;23.310;2023-02-23T03:15:14;93835.59;;;6.20;78.92
28911;BME280;16028;42.642;23.310;2023-02-23T03:18:01;93834.66;;;6.21;78.47
28911;BME280;16028;42.642;23.310;2023-02-23T03:20:51;93837.25;;;6.21;78.39
28911;BME280;16028;42.642;23.310;2023-02-23T03:23:39;93839.44;;;6.26;78.40
28911;BME280;16028;42.642;23.310;2023-02-23T03:26:28;93841.28;;;6.14;79.27
28911;BME280;16028;42.642;23.310;2023-02-23T03:29:15;93845.03;;;6.10;79.49
28911;BME280;16028;42.642;23.310;2023-02-23T03:32:01;93849.53;;;6.08;79.34
28911;BME280;16028;42.642;23.310;2023-02-23T03:34:49;93850.09;;;6.12;78.80
28911;BME280;16028;42.642;23.310;2023-02-23T03:37:36;93845.53;;;6.04;80.47
28911;BME280;16028;42.642;23.310;2023-02-23T03:40:22;93848.00;;;6.06;79.29
28911;BME280;16028;42.642;23.310;2023-02-23T03:43:11;93854.69;;;6.08;79.70
28911;BME280;16028;42.642;23.310;2023-02-23T03:45:56;93852.94;;;6.09;79.46
28911;BME280;16028;42.642;23.310;2023-02-23T03:48:41;93856.38;;;5.98;79.73
28911;BME280;16028;42.642;23.310;2023-02-23T03:51:25;93856.88;;;5.92;80.38
28911;BME280;16028;42.642;23.310;2023-02-23T03:54:11;93863.69;;;5.93;80.28
28911;BME280;16028;42.642;23.310;2023-02-23T03:56:57;93865.53;;;5.91;80.31
28911;BME280;16028;42.642;23.310;2023-02-23T03:59:45;93865.78;;;5.88;80.76
28911;BME280;16028;42.642;23.310;2023-02-23T04:02:31;93865.78;;;5.88;80.45
28911;BME280;16028;42.642;23.310;2023-02-23T04:05:17;93864.84;;;5.89;80.68
28911;BME280;16028;42.642;23.310;2023-02-23T04:08:02;93867.91;;;5.83;80.99
28911;BME280;16028;42.642;23.310;2023-02-23T04:10:48;93865.09;;;5.75;81.59
28911;BME280;16028;42.642;23.310;2023-02-23T04:13:33;93863.47;;;5.74;81.59
28911;BME280;16028;42.642;23.310;2023-02-23T04:16:03;93863.22;;;5.77;81.43
28911;BME280;16028;42.642;23.310;2023-02-23T04:18:30;93863.09;;;5.78;81.88
28911;BME280;16028;42.642;23.310;2023-02-23T04:20:58;93858.22;;;5.64;82.14
28911;BME280;16028;42.642;23.310;2023-02-23T04:23:25;93858.22;;;5.64;82.45
28911;BME280;16028;42.642;23.310;2023-02-23T04:25:51;93861.84;;;5.62;82.71
28911;BME280;16028;42.642;23.310;2023-02-23T04:28:19;93862.06;;;5.70;82.27
28911;BME280;16028;42.642;23.310;2023-02-23T04:30:45;93856.44;;;5.65;82.13
28911;BME280;16028;42.642;23.310;2023-02-23T04:33:13;93860.09;;;5.62;82.00
28911;BME280;16028;42.642;23.310;2023-02-23T04:35:40;93865.41;;;5.61;82.40
28911;BME280;16028;42.642;23.310;2023-02-23T04:38:07;93858.09;;;5.66;81.63
28911;BME280;16028;42.642;23.310;2023-02-23T04:40:33;93864.44;;;5.62;81.82
28911;BME280;16028;42.642;23.310;2023-02-23T04:43:00;93863.31;;;5.55;82.69
28911;BME280;16028;42.642;23.310;2023-02-23T04:45:26;93868.56;;;5.53;82.22
28911;BME280;16028;42.642;23.310;2023-02-23T04:47:53;93862.34;;;5.56;82.14
28911;BME280;16028;42.642;23.310;2023-02-23T04:50:21;93866.31;;;5.60;81.38
28911;BME280;16028;42.642;23.310;2023-02-23T04:52:48;93866.56;;;5.57;82.38
28911;BME280;16028;42.642;23.310;2023-02-23T04:55:15;93868.81;;;5.50;82.37
28911;BME280;16028;42.642;23.310;2023-02-23T04:57:42;93865.91;;;5.44;82.35
28911;BME280;16028;42.642;23.310;2023-02-23T05:00:10;93866.38;;;5.49;82.56
28911;BME280;16028;42.642;23.310;2023-02-23T05:02:37;93863.22;;;5.45;82.31
28911;BME280;16028;42.642;23.310;2023-02-23T05:05:03;93861.56;;;5.44;82.54
28911;BME280;16028;42.642;23.310;2023-02-23T05:07:32;93869.06;;;5.47;82.47
28911;BME280;16028;42.642;23.310;2023-02-23T05:09:59;93862.00;;;5.49;82.30
28911;BME280;16028;42.642;23.310;2023-02-23T05:12:25;93862.72;;;5.51;82.18
28911;BME280;16028;42.642;23.310;2023-02-23T05:14:51;93862.63;;;5.42;82.74
28911;BME280;16028;42.642;23.310;2023-02-23T05:17:18;93864.16;;;5.33;83.16
28911;BME280;16028;42.642;23.310;2023-02-23T05:19:44;93866.72;;;5.33;83.30
28911;BME280;16028;42.642;23.310;2023-02-23T05:22:11;93868.84;;;5.39;83.02
28911;BME280;16028;42.642;23.310;2023-02-23T05:24:39;93876.94;;;5.34;83.42
28911;BME280;16028;42.642;23.310;2023-02-23T05:27:05;93875.41;;;5.32;83.38
28911;BME280;16028;42.642;23.310;2023-02-23T05:29:32;93883.03;;;5.33;83.56
28911;BME280;16028;42.642;23.310;2023-02-23T05:31:58;93878.59;;;5.36;83.02
28911;BME280;16028;42.642;23.310;2023-02-23T05:34:25;93882.69;;;5.38;82.92
28911;BME280;16028;42.642;23.310;2023-02-23T05:36:52;93882.09;;;5.34;83.19
28911;BME280;16028;42.642;23.310;2023-02-23T05:39:18;93891.72;;;5.32;83.42
28911;BME280;16028;42.642;23.310;2023-02-23T05:41:46;93900.84;;;5.25;83.76
28911;BME280;16028;42.642;23.310;2023-02-23T05:44:13;93901.66;;;5.37;83.40
28911;BME280;16028;42.642;23.310;2023-02-23T05:46:39;93900.63;;;5.28;84.14
28911;BME280;16028;42.642;23.310;2023-02-23T05:49:06;93898.97;;;5.27;84.09
28911;BME280;16028;42.642;23.310;2023-02-23T05:51:33;93905.78;;;5.28;84.15
28911;BME280;16028;42.642;23.310;2023-02-23T05:53:59;93901.91;;;5.34;84.11
28911;BME280;16028;42.642;23.310;2023-02-23T05:56:26;93907.97;;;5.33;84.56
28911;BME280;16028;42.642;23.310;2023-02-23T05:58:55;93908.34;;;5.28;85.34
28911;BME280;16028;42.642;23.310;2023-02-23T06:01:22;93914.19;;;5.30;85.49
28911;BME280;16028;42.642;23.310;2023-02-23T06:03:49;93911.97;;;5.37;85.26
28911;BME280;16028;42.642;23.310;2023-02-23T06:06:16;93919.94;;;5.45;84.71
28911;BME280;16028;42.642;23.310;2023-02-23T06:08:43;93919.72;;;5.48;85.06
28911;BME280;16028;42.642;23.310;2023-02-23T06:11:10;93924.50;;;5.53;85.11
28911;BME280;16028;42.642;23.310;2023-02-23T06:13:36;93919.09;;;5.56;84.66
28911;BME280;16028;42.642;23.310;2023-02-23T06:16:05;93925.56;;;5.61;84.66
28911;BME280;16028;42.642;23.310;2023-02-23T06:18:32;93922.59;;;5.66;85.50
28911;BME280;16028;42.642;23.310;2023-02-23T06:20:59;93924.00;;;5.70;85.40
28911;BME280;16028;42.642;23.310;2023-02-23T06:23:28;93926.09;;;5.76;85.21
28911;BME280;16028;42.642;23.310;2023-02-23T06:25:55;93926.13;;;5.87;85.60
28911;BME280;16028;42.642;23.310;2023-02-23T06:28:22;93926.97;;;6.08;85.71
28911;BME280;16028;42.642;23.310;2023-02-23T06:30:50;93930.25;;;6.10;84.85
28911;BME280;16028;42.642;23.310;2023-02-23T06:33:19;93934.66;;;6.19;84.96
28911;BME280;16028;42.642;23.310;2023-02-23T06:35:45;93931.47;;;6.27;84.50
28911;BME280;16028;42.642;23.310;2023-02-23T06:38:12;93941.38;;;6.43;84.37
28911;BME280;16028;42.642;23.310;2023-02-23T06:40:39;93937.97;;;6.42;84.34
28911;BME280;16028;42.642;23.310;2023-02-23T06:43:05;93939.69;;;6.53;83.59
28911;BME280;16028;42.642;23.310;2023-02-23T06:45:32;93931.88;;;6.64;83.07
28911;BME280;16028;42.642;23.310;2023-02-23T06:47:58;93935.47;;;6.72;82.94
28911;BME280;16028;42.642;23.310;2023-02-23T06:50:27;93937.97;;;6.83;83.15
28911;BME280;16028;42.642;23.310;2023-02-23T06:52:53;93933.69;;;6.93;82.88
28911;BME280;16028;42.642;23.310;2023-02-23T06:55:21;93937.47;;;6.89;83.25
28911;BME280;16028;42.642;23.310;2023-02-23T06:57:48;93935.44;;;6.93;83.39
28911;BME280;16028;42.642;23.310;2023-02-23T07:00:15;93933.47;;;7.06;83.92
28911;BME280;16028;42.642;23.310;2023-02-23T07:02:42;93931.75;;;7.16;82.58
28911;BME280;16028;42.642;23.310;2023-02-23T07:05:09;93938.13;;;7.12;81.51
28911;BME280;16028;42.642;23.310;2023-02-23T07:07:37;93940.16;;;7.09;81.79
28911;BME280;16028;42.642;23.310;2023-02-23T07:10:04;93939.06;;;7.02;80.23
28911;BME280;16028;42.642;23.310;2023-02-23T07:12:31;93941.03;;;6.88;81.33
28911;BME280;16028;42.642;23.310;2023-02-23T07:14:57;93944.28;;;6.90;80.58
28911;BME280;16028;42.642;23.310;2023-02-23T07:17:24;93943.78;;;6.97;79.57
28911;BME280;16028;42.642;23.310;2023-02-23T07:19:50;93946.75;;;6.92;80.92
28911;BME280;16028;42.642;23.310;2023-02-23T07:22:17;93949.94;;;7.05;78.13
28911;BME280;16028;42.642;23.310;2023-02-23T07:24:45;93944.44;;;6.89;78.56
28911;BME280;16028;42.642;23.310;2023-02-23T07:27:12;93943.97;;;7.05;78.01
28911;BME280;16028;42.642;23.310;2023-02-23T07:29:38;93943.91;;;6.95;78.68
28911;BME280;16028;42.642;23.310;2023-02-23T07:32:05;93935.84;;;7.19;77.50
28911;BME280;16028;42.642;23.310;2023-02-23T07:34:31;93942.97;;;7.26;76.58
28911;BME280;16028;42.642;23.310;2023-02-23T07:36:58;93938.19;;;7.22;76.18
28911;BME280;16028;42.642;23.310;2023-02-23T07:39:24;93935.34;;;7.25;76.59
28911;BME280;16028;42.642;23.310;2023-02-23T07:41:52;93940.09;;;7.20;77.72
28911;BME280;16028;42.642;23.310;2023-02-23T07:44:19;93940.78;;;7.52;75.09
28911;BME280;16028;42.642;23.310;2023-02-23T07:46:45;93939.16;;;7.61;73.43
28911;BME280;16028;42.642;23.310;2023-02-23T07:49:12;93939.69;;;7.55;75.03
28911;BME280;16028;42.642;23.310;2023-02-23T07:51:39;93932.31;;;7.60;75.15
28911;BME280;16028;42.642;23.310;2023-02-23T07:54:06;93932.31;;;7.60;74.65
28911;BME280;16028;42.642;23.310;2023-02-23T07:56:32;93922.72;;;7.81;73.66
28911;BME280;16028;42.642;23.310;2023-02-23T07:59:00;93919.34;;;7.90;73.52
28911;BME280;16028;42.642;23.310;2023-02-23T08:01:27;93919.88;;;7.84;74.48
28911;BME280;16028;42.642;23.310;2023-02-23T08:03:54;93926.69;;;8.04;73.13
28911;BME280;16028;42.642;23.310;2023-02-23T08:06:21;93919.06;;;8.03;75.00
28911;BME280;16028;42.642;23.310;2023-02-23T08:08:47;93921.13;;;8.09;74.74
28911;BME280;16028;42.642;23.310;2023-02-23T08:11:14;93926.59;;;8.15;75.05
28911;BME280;16028;42.642;23.310;2023-02-23T08:13:40;93922.13;;;8.46;72.68
28911;BME280;16028;42.642;23.310;2023-02-23T08:16:08;93916.94;;;8.56;71.84
28911;BME280;16028;42.642;23.310;2023-02-23T08:18:36;93915.03;;;8.58;71.53
28911;BME280;16028;42.642;23.310;2023-02-23T08:21:03;93919.09;;;8.79;69.34
28911;BME280;16028;42.642;23.310;2023-02-23T08:23:30;93922.09;;;8.75;70.17
28911;BME280;16028;42.642;23.310;2023-02-23T08:25:58;93923.47;;;8.69;72.38
28911;BME280;16028;42.642;23.310;2023-02-23T08:28:24;93925.41;;;8.67;73.12
28911;BME280;16028;42.642;23.310;2023-02-23T08:30:51;93921.97;;;8.76;72.91
28911;BME280;16028;42.642;23.310;2023-02-23T08:33:20;93918.34;;;9.16;69.36
28911;BME280;16028;42.642;23.310;2023-02-23T08:35:46;93923.53;;;9.16;68.61
28911;BME280;16028;42.642;23.310;2023-02-23T08:38:13;93926.41;;;9.03;70.30
28911;BME280;16028;42.642;23.310;2023-02-23T08:40:40;93924.75;;;9.12;71.69
28911;BME280;16028;42.642;23.310;2023-02-23T08:43:07;93920.91;;;9.25;70.34
28911;BME280;16028;42.642;23.310;2023-02-23T08:45:33;93920.75;;;9.27;69.70
28911;BME280;16028;42.642;23.310;2023-02-23T08:48:00;93921.81;;;9.34;68.91
28911;BME280;16028;42.642;23.310;2023-02-23T08:50:28;93922.06;;;9.68;66.23
28911;BME280;16028;42.642;23.310;2023-02-23T08:52:54;93915.09;;;9.68;65.98
28911;BME280;16028;42.642;23.310;2023-02-23T08:55:21;93914.09;;;9.79;65.73
28911;BME280;16028;42.642;23.310;2023-02-23T08:57:48;93917.66;;;9.78;65.66
28911;BME280;16028;42.642;23.310;2023-02-23T09:00:14;93919.59;;;9.76;66.75
28911;BME280;16028;42.642;23.310;2023-02-23T09:02:41;93915.16;;;9.86;67.25
28911;BME280;16028;42.642;23.310;2023-02-23T09:05:08;93921.25;;;10.12;64.33
28911;BME280;16028;42.642;23.310;2023-02-23T09:07:37;93912.34;;;10.24;63.04
28911;BME280;16028;42.642;23.310;2023-02-23T09:10:04;93913.81;;;10.27;63.04
28911;BME280;16028;42.642;23.310;2023-02-23T09:12:30;93904.88;;;10.47;62.35
28911;BME280;16028;42.642;23.310;2023-02-23T09:14:57;93910.84;;;10.39;62.52
28911;BME280;16028;42.642;23.310;2023-02-23T09:17:23;93901.72;;;10.35;63.75
28911;BME280;16028;42.642;23.310;2023-02-23T09:19:50;93901.94;;;10.42;64.40
28911;BME280;16028;42.642;23.310;2023-02-23T09:22:17;93902.38;;;10.55;63.32
28911;BME280;16028;42.642;23.310;2023-02-23T09:24:45;93905.00;;;10.81;60.92
28911;BME280;16028;42.642;23.310;2023-02-23T09:27:11;93904.44;;;10.95;60.47
28911;BME280;16028;42.642;23.310;2023-02-23T09:29:38;93910.13;;;10.90;61.42
28911;BME280;16028;42.642;23.310;2023-02-23T09:32:06;93905.16;;;11.05;60.08
28911;BME280;16028;42.642;23.310;2023-02-23T09:34:32;93906.06;;;11.13;60.35
28911;BME280;16028;42.642;23.310;2023-02-23T09:37:00;93912.31;;;11.29;58.64
28911;BME280;16028;42.642;23.310;2023-02-23T09:39:27;93911.44;;;11.20;61.49
28911;BME280;16028;42.642;23.310;2023-02-23T09:42:04;93912.72;;;11.42;58.19
28911;BME280;16028;42.642;23.310;2023-02-23T09:44:38;93910.34;;;11.56;57.30
28911;BME280;16028;42.642;23.310;2023-02-23T09:47:11;93911.66;;;11.60;57.52
28911;BME280;16028;42.642;23.310;2023-02-23T09:49:40;93914.38;;;11.77;55.78
28911;BME280;16028;42.642;23.310;2023-02-23T09:52:09;93905.66;;;11.68;57.85
28911;BME280;16028;42.642;23.310;2023-02-23T09:54:40;93900.84;;;11.81;56.41
28911;BME280;16028;42.642;23.310;2023-02-23T09:57:09;93896.50;;;11.90;55.34
28911;BME280;16028;42.642;23.310;2023-02-23T09:59:38;93894.56;;;12.00;55.08
28911;BME280;16028;42.642;23.310;2023-02-23T10:02:06;93894.41;;;12.09;54.91
28911;BME280;16028;42.642;23.310;2023-02-23T10:04:39;93892.94;;;11.99;54.69
28911;BME280;16028;42.642;23.310;2023-02-23T10:07:11;93897.63;;;11.87;56.21
28911;BME280;16028;42.642;23.310;2023-02-23T10:12:25;93893.28;;;12.04;58.19
28911;BME280;16028;42.642;23.310;2023-02-23T10:14:57;93890.06;;;12.26;55.54
28911;BME280;16028;42.642;23.310;2023-02-23T10:17:28;93886.97;;;12.39;53.89
28911;BME280;16028;42.642;23.310;2023-02-23T10:19:59;93883.25;;;12.57;52.43
28911;BME280;16028;42.642;23.310;2023-02-23T10:22:30;93882.78;;;12.54;52.88
28911;BME280;16028;42.642;23.310;2023-02-23T10:24:59;93885.88;;;12.65;52.53
28911;BME280;16028;42.642;23.310;2023-02-23T10:27:31;93874.28;;;12.60;55.43
28911;BME280;16028;42.642;23.310;2023-02-23T10:29:58;93874.28;;;12.60;53.37
28911;BME280;16028;42.642;23.310;2023-02-23T10:32:29;93866.94;;;12.88;53.77
28911;BME280;16028;42.642;23.310;2023-02-23T10:34:58;93870.03;;;12.83;53.58
28911;BME280;16028;42.642;23.310;2023-02-23T10:37:24;93865.66;;;12.76;54.05
28911;BME280;16028;42.642;23.310;2023-02-23T10:39:51;93853.88;;;12.80;52.88
28911;BME280;16028;42.642;23.310;2023-02-23T10:42:19;93853.25;;;12.86;54.38
28911;BME280;16028;42.642;23.310;2023-02-23T10:44:48;93857.78;;;13.00;53.68
28911;BME280;16028;42.642;23.310;2023-02-23T10:47:15;93854.81;;;13.19;51.53
28911;BME280;16028;42.642;23.310;2023-02-23T10:49:43;93845.97;;;13.28;51.93
28911;BME280;16028;42.642;23.310;2023-02-23T10:52:10;93852.81;;;13.37;51.00
28911;BME280;16028;42.642;23.310;2023-02-23T10:54:39;93842.50;;;13.52;50.76
28911;BME280;16028;42.642;23.310;2023-02-23T10:57:09;93839.75;;;13.76;49.66
28911;BME280;16028;42.642;23.310;2023-02-23T10:59:57;93840.63;;;13.68;49.41
28911;BME280;16028;42.642;23.310;2023-02-23T11:02:26;93838.69;;;13.93;48.88
28911;BME280;16028;42.642;23.310;2023-02-23T11:04:56;93833.13;;;13.96;48.35
28911;BME280;16028;42.642;23.310;2023-02-23T11:07:23;93832.22;;;13.81;48.38
28911;BME280;16028;42.642;23.310;2023-02-23T11:09:53;93825.22;;;13.73;49.32
28911;BME280;16028;42.642;23.310;2023-02-23T11:12:21;93824.38;;;13.81;49.14
28911;BME280;16028;42.642;23.310;2023-02-23T11:14:49;93820.81;;;14.05;48.09
28911;BME280;16028;42.642;23.310;2023-02-23T11:17:27;93829.53;;;14.20;47.87
28911;BME280;16028;42.642;23.310;2023-02-23T11:20:02;93817.91;;;14.00;48.44
28911;BME280;16028;42.642;23.310;2023-02-23T11:22:30;93819.19;;;14.04;51.22
28911;BME280;16028;42.642;23.310;2023-02-23T11:24:57;93816.44;;;14.20;48.84
28911;BME280;16028;42.642;23.310;2023-02-23T11:27:24;93815.56;;;14.36;47.31
28911;BME280;16028;42.642;23.310;2023-02-23T11:29:51;93813.41;;;14.39;47.12
28911;BME280;16028;42.642;23.310;2023-02-23T11:32:20;93806.19;;;14.41;50.16
28911;BME280;16028;42.642;23.310;2023-02-23T11:35:10;93804.38;;;14.64;46.15
28911;BME280;16028;42.642;23.310;2023-02-23T11:37:35;93806.50;;;14.83;45.55
28911;BME280;16028;42.642;23.310;2023-02-23T11:40:07;93794.28;;;14.91;44.96
28911;BME280;16028;42.642;23.310;2023-02-23T11:42:49;93796.28;;;15.03;44.25
28911;BME280;16028;42.642;23.310;2023-02-23T11:45:17;93795.16;;;15.06;45.77
28911;BME280;16028;42.642;23.310;2023-02-23T11:47:45;93798.28;;;15.16;45.06
28911;BME280;16028;42.642;23.310;2023-02-23T11:50:19;93792.34;;;15.36;44.31
28911;BME280;16028;42.642;23.310;2023-02-23T11:52:48;93797.31;;;15.31;46.80
28911;BME280;16028;42.642;23.310;2023-02-23T11:55:18;93787.75;;;15.53;43.92
28911;BME280;16028;42.642;23.310;2023-02-23T11:57:45;93789.72;;;15.36;45.15
28911;BME280;16028;42.642;23.310;2023-02-23T12:00:20;93786.84;;;15.31;47.86
28911;BME280;16028;42.642;23.310;2023-02-23T12:02:48;93785.72;;;15.26;47.16
28911;BME280;16028;42.642;23.310;2023-02-23T12:05:17;93788.28;;;15.34;44.42
28911;BME280;16028;42.642;23.310;2023-02-23T12:07:48;93780.66;;;15.39;45.22
28911;BME280;16028;42.642;23.310;2023-02-23T12:10:17;93778.34;;;15.44;45.07
28911;BME280;16028;42.642;23.310;2023-02-23T12:12:51;93780.31;;;15.42;44.92
28911;BME280;16028;42.642;23.310;2023-02-23T12:15:24;93777.50;;;15.58;45.85
28911;BME280;16028;42.642;23.310;2023-02-23T12:17:52;93774.44;;;15.69;44.84
28911;BME280;16028;42.642;23.310;2023-02-23T12:20:22;93767.78;;;15.73;46.00
28911;BME280;16028;42.642;23.310;2023-02-23T12:22:53;93773.25;;;15.72;46.63
28911;BME280;16028;42.642;23.310;2023-02-23T12:25:22;93771.22;;;15.88;46.36
28911;BME280;16028;42.642;23.310;2023-02-23T12:27:52;93768.47;;;15.97;43.78
28911;BME280;16028;42.642;23.310;2023-02-23T12:30:22;93765.41;;;15.93;43.86
28911;BME280;16028;42.642;23.310;2023-02-23T12:32:53;93768.28;;;15.98;46.56
28911;BME280;16028;42.642;23.310;2023-02-23T12:35:22;93768.66;;;15.95;45.60
28911;BME280;16028;42.642;23.310;2023-02-23T12:37:54;93765.22;;;15.95;46.13
28911;BME280;16028;42.642;23.310;2023-02-23T12:40:23;93769.66;;;15.94;45.12
28911;BME280;16028;42.642;23.310;2023-02-23T12:42:55;93768.91;;;16.00;45.58
28911;BME280;16028;42.642;23.310;2023-02-23T12:45:24;93765.75;;;16.05;46.44
28911;BME280;16028;42.642;23.310;2023-02-23T12:47:55;93764.84;;;15.98;43.95
28911;BME280;16028;42.642;23.310;2023-02-23T12:50:26;93767.47;;;15.98;43.29
28911;BME280;16028;42.642;23.310;2023-02-23T12:52:56;93761.84;;;16.01;45.76
28911;BME280;16028;42.642;23.310;2023-02-23T12:55:30;93765.59;;;16.13;46.89
28911;BME280;16028;42.642;23.310;2023-02-23T12:58:04;93764.84;;;16.19;44.51
28911;BME280;16028;42.642;23.310;2023-02-23T13:00:36;93758.63;;;16.20;46.27
28911;BME280;16028;42.642;23.310;2023-02-23T13:03:15;93751.13;;;16.17;43.67
28911;BME280;16028;42.642;23.310;2023-02-23T13:05:46;93751.78;;;16.25;44.91
28911;BME280;16028;42.642;23.310;2023-02-23T13:08:17;93755.19;;;16.19;43.48
28911;BME280;16028;42.642;23.310;2023-02-23T13:10:47;93751.94;;;16.17;44.94
28911;BME280;16028;42.642;23.310;2023-02-23T13:13:19;93758.63;;;16.20;45.33
28911;BME280;16028;42.642;23.310;2023-02-23T13:15:51;93752.94;;;16.16;45.44
28911;BME280;16028;42.642;23.310;2023-02-23T13:18:22;93759.03;;;16.02;45.90
28911;BME280;16028;42.642;23.310;2023-02-23T13:20:50;93757.28;;;16.09;46.05
28911;BME280;16028;42.642;23.310;2023-02-23T13:23:23;93748.22;;;16.12;46.93
28911;BME280;16028;42.642;23.310;2023-02-23T13:25:52;93756.44;;;16.23;47.37
28911;BME280;16028;42.642;23.310;2023-02-23T13:28:31;93755.69;;;16.29;45.74
28911;BME280;16028;42.642;23.310;2023-02-23T13:31:00;93754.34;;;16.19;45.57
28911;BME280;16028;42.642;23.310;2023-02-23T13:33:27;93751.72;;;16.19;45.62
28911;BME280;16028;42.642;23.310;2023-02-23T13:35:58;93746.53;;;16.25;47.69
28911;BME280;16028;42.642;23.310;2023-02-23T13:38:29;93744.53;;;16.27;46.55
28911;BME280;16028;42.642;23.310;2023-02-23T13:41:02;93748.34;;;16.25;45.65
28911;BME280;16028;42.642;23.310;2023-02-23T13:43:32;93747.69;;;16.16;46.25
28911;BME280;16028;42.642;23.310;2023-02-23T13:46:06;93749.84;;;16.13;47.32
28911;BME280;16028;42.642;23.310;2023-02-23T13:48:41;93751.28;;;16.15;47.18
28911;BME280;16028;42.642;23.310;2023-02-23T13:51:12;93756.38;;;16.17;45.28
28911;BME280;16028;42.642;23.310;2023-02-23T13:53:42;93756.00;;;16.20;46.42
28911;BME280;16028;42.642;23.310;2023-02-23T13:56:14;93756.50;;;16.30;46.37
28911;BME280;16028;42.642;23.310;2023-02-23T13:58:43;93750.00;;;16.26;46.37
28911;BME280;16028;42.642;23.310;2023-02-23T14:01:13;93752.00;;;16.24;45.58
28911;BME280;16028;42.642;23.310;2023-02-23T14:03:42;93751.56;;;16.20;46.67
28911;BME280;16028;42.642;23.310;2023-02-23T14:06:11;93752.38;;;16.21;45.55
28911;BME280;16028;42.642;23.310;2023-02-23T14:08:39;93755.19;;;16.19;45.98
28911;BME280;16028;42.642;23.310;2023-02-23T14:11:09;93746.25;;;16.14;46.58
28911;BME280;16028;42.642;23.310;2023-02-23T14:13:38;93751.88;;;16.11;48.01
28911;BME280;16028;42.642;23.310;2023-02-23T14:16:15;93751.97;;;16.03;47.85
28911;BME280;16028;42.642;23.310;2023-02-23T14:21:36;93748.91;;;15.99;47.95
28911;BME280;16028;42.642;23.310;2023-02-23T14:24:15;93749.56;;;16.01;47.50
28911;BME280;16028;42.642;23.310;2023-02-23T14:26:45;93750.78;;;16.05;46.66
28911;BME280;16028;42.642;23.310;2023-02-23T14:29:36;93747.09;;;16.00;46.26
28911;BME280;16028;42.642;23.310;2023-02-23T14:34:48;93743.88;;;15.98;46.76
28911;BME280;16028;42.642;23.310;2023-02-23T14:37:19;93736.91;;;15.90;48.09
28911;BME280;16028;42.642;23.310;2023-02-23T14:39:51;93738.72;;;15.89;48.72
28911;BME280;16028;42.642;23.310;2023-02-23T14:42:21;93737.03;;;15.82;48.44
28911;BME280;16028;42.642;23.310;2023-02-23T14:44:48;93743.28;;;15.81;47.20
28911;BME280;16028;42.642;23.310;2023-02-23T14:47:17;93732.56;;;15.97;46.27
28911;BME280;16028;42.642;23.310;2023-02-23T14:49:45;93735.94;;;15.91;47.18
28911;BME280;16028;42.642;23.310;2023-02-23T14:52:13;93732.31;;;15.92;46.53
28911;BME280;16028;42.642;23.310;2023-02-23T14:54:44;93737.91;;;15.89;47.09
28911;BME280;16028;42.642;23.310;2023-02-23T14:57:18;93731.09;;;15.73;47.25
28911;BME280;16028;42.642;23.310;2023-02-23T14:59:55;93734.00;;;15.64;47.42
28911;BME280;16028;42.642;23.310;2023-02-23T15:02:22;93734.13;;;15.56;47.88
28911;BME280;16028;42.642;23.310;2023-02-23T15:04:49;93742.09;;;15.48;48.52
28911;BME280;16028;42.642;23.310;2023-02-23T15:07:17;93738.94;;;15.38;47.80
28911;BME280;16028;42.642;23.310;2023-02-23T15:09:49;93752.75;;;15.17;47.72
28911;BME280;16028;42.642;23.310;2023-02-23T15:12:17;93755.41;;;15.02;48.38
28911;BME280;16028;42.642;23.310;2023-02-23T15:14:44;93751.50;;;14.98;48.81
28911;BME280;16028;42.642;23.310;2023-02-23T15:17:14;93758.28;;;14.93;49.03
28911;BME280;16028;42.642;23.310;2023-02-23T15:19:41;93757.53;;;14.84;48.77
28911;BME280;16028;42.642;23.310;2023-02-23T15:22:13;93764.84;;;14.74;48.61
28911;BME280;16028;42.642;23.310;2023-02-23T15:24:42;93770.13;;;14.51;49.58
28911;BME280;16028;42.642;23.310;2023-02-23T15:27:15;93769.09;;;14.38;49.97
28911;BME280;16028;42.642;23.310;2023-02-23T15:29:41;93774.94;;;14.17;49.98
28911;BME280;16028;42.642;23.310;2023-02-23T15:32:12;93786.66;;;14.06;50.38
28911;BME280;16028;42.642;23.310;2023-02-23T15:34:44;93798.28;;;14.04;51.11
28911;BME280;16028;42.642;23.310;2023-02-23T15:37:15;93792.91;;;13.97;50.73
28911;BME280;16028;42.642;23.310;2023-02-23T15:39:45;93790.56;;;13.79;50.89
28911;BME280;16028;42.642;23.310;2023-02-23T15:42:13;93797.16;;;13.67;51.21
28911;BME280;16028;42.642;23.310;2023-02-23T15:44:40;93795.59;;;13.58;51.73
28911;BME280;16028;42.642;23.310;2023-02-23T15:47:10;93805.03;;;13.59;51.75
28911;BME280;16028;42.642;23.310;2023-02-23T15:49:40;93801.78;;;13.57;51.91